createdAt,value
2022-09-26T00:01:43.162Z,83.34
2022-09-26T00:04:22.978Z,83.65
2022-09-26T00:06:53.959Z,83.52
2022-09-26T00:09:24.110Z,83.45
2022-09-26T00:11:53.442Z,83.37
2022-09-26T00:14:25.521Z,83.37
2022-09-26T00:16:53.996Z,83.38
2022-09-26T00:19:23.110Z,83.33
2022-09-26T00:21:51.702Z,83.21
2022-09-26T00:24:20.517Z,83.21
2022-09-26T00:26:48.738Z,83.43
2022-09-26T00:29:17.064Z,83.33
2022-09-26T00:31:47.538Z,82.97
2022-09-26T00:34:18.852Z,82.61
2022-09-26T00:36:47.123Z,82.50
2022-09-26T00:39:16.759Z,82.95
2022-09-26T00:41:45.807Z,83.41
2022-09-26T00:44:32.746Z,83.30
2022-09-26T00:47:01.547Z,83.49
2022-09-26T00:49:36.602Z,83.49
2022-09-26T00:52:16.125Z,83.61
2022-09-26T00:54:48.817Z,83.74
2022-09-26T00:57:21.860Z,84.14
2022-09-26T00:59:57.610Z,84.09
2022-09-26T01:02:29.034Z,83.88
2022-09-26T01:04:59.500Z,83.95
2022-09-26T01:07:30.026Z,84.08
2022-09-26T01:09:59.436Z,84.05
2022-09-26T01:12:27.730Z,84.14
2022-09-26T01:14:57.279Z,84.10
2022-09-26T01:17:27.145Z,83.96
2022-09-26T01:20:21.307Z,84.27
2022-09-26T01:23:08.099Z,84.50
2022-09-26T01:26:01.283Z,84.31
2022-09-26T01:28:32.384Z,84.09
2022-09-26T01:31:12.461Z,83.81
2022-09-26T01:33:59.529Z,83.87
2022-09-26T01:36:52.681Z,84.12
2022-09-26T01:39:38.383Z,84.69
2022-09-26T01:42:31.280Z,84.70
2022-09-26T01:45:18.745Z,84.87
2022-09-26T01:48:10.114Z,85.09
2022-09-26T01:50:50.813Z,85.06
2022-09-26T01:53:39.177Z,84.77
2022-09-26T01:56:14.873Z,85.02
2022-09-26T01:58:50.096Z,85.15
2022-09-26T02:01:23.003Z,85.48
2022-09-26T02:03:58.980Z,85.47
2022-09-26T02:06:42.932Z,85.39
2022-09-26T02:09:17.202Z,85.28
2022-09-26T02:11:50.570Z,85.47
2022-09-26T02:14:32.358Z,85.55
2022-09-26T02:17:23.041Z,85.34
2022-09-26T02:20:00.955Z,85.29
2022-09-26T02:22:34.108Z,85.29
2022-09-26T02:25:04.551Z,85.45
2022-09-26T02:27:33.321Z,85.82
2022-09-26T02:30:01.826Z,85.70
2022-09-26T02:32:32.958Z,85.51
2022-09-26T02:35:22.566Z,85.28
2022-09-26T02:37:51.106Z,85.40
2022-09-26T02:40:23.272Z,85.23
2022-09-26T02:43:05.509Z,85.26
2022-09-26T02:46:15.831Z,85.08
2022-09-26T02:49:10.298Z,84.72
2022-09-26T02:52:03.473Z,84.56
2022-09-26T02:54:51.771Z,84.77
2022-09-26T02:57:40.726Z,85.21
2022-09-26T03:00:16.374Z,86.07
2022-09-26T03:03:06.064Z,85.72
2022-09-26T03:05:38.920Z,85.70
2022-09-26T03:08:13.365Z,85.65
2022-09-26T03:10:42.814Z,85.44
2022-09-26T03:13:13.413Z,85.59
2022-09-26T03:15:46.295Z,85.89
2022-09-26T03:18:22.773Z,85.65
2022-09-26T03:20:54.381Z,85.67
2022-09-26T03:23:25.614Z,85.99
2022-09-26T03:26:14.030Z,85.93
2022-09-26T03:28:52.195Z,86.35
2022-09-26T03:31:25.596Z,86.61
2022-09-26T03:34:01.146Z,86.41
2022-09-26T03:36:30.367Z,86.39
2022-09-26T03:38:58.582Z,86.24
2022-09-26T03:41:45.607Z,85.99
2022-09-26T03:44:21.799Z,85.90
2022-09-26T03:47:05.160Z,85.86
2022-09-26T03:49:37.016Z,86.07
2022-09-26T03:52:07.488Z,86.37
2022-09-26T03:54:35.711Z,86.13
2022-09-26T03:57:04.484Z,86.40
2022-09-26T03:59:34.293Z,86.52
2022-09-26T04:02:02.883Z,86.37
2022-09-26T04:04:32.411Z,86.48
2022-09-26T04:07:00.553Z,86.58
2022-09-26T04:09:28.958Z,86.93
2022-09-26T04:11:57.239Z,87.12
2022-09-26T04:14:26.606Z,87.01
2022-09-26T04:16:58.540Z,86.91
2022-09-26T04:19:34.032Z,86.85
2022-09-26T04:22:03.774Z,86.90
2022-09-26T04:24:36.472Z,87.04
2022-09-26T04:27:08.703Z,86.91
2022-09-26T04:29:37.024Z,86.54
2022-09-26T04:32:16.174Z,86.35
2022-09-26T04:35:13.809Z,86.51
2022-09-26T04:37:42.085Z,86.69
2022-09-26T04:40:11.527Z,87.32
2022-09-26T04:42:45.554Z,86.97
2022-09-26T04:46:17.202Z,86.53
2022-09-26T04:49:30.590Z,86.60
2022-09-26T04:52:25.647Z,86.85
2022-09-26T04:55:09.920Z,86.55
2022-09-26T05:00:52.618Z,86.25
2022-09-26T05:03:47.320Z,86.11
2022-09-26T05:06:20.666Z,86.04
2022-09-26T05:08:54.946Z,86.06
2022-09-26T05:11:53.639Z,86.81
2022-09-26T05:14:21.912Z,86.71
2022-09-26T05:16:51.395Z,86.91
2022-09-26T05:19:24.447Z,86.82
2022-09-26T05:22:22.427Z,86.92
2022-09-26T05:25:41.267Z,87.00
2022-09-26T05:28:11.702Z,87.17
2022-09-26T05:30:46.413Z,86.68
2022-09-26T05:33:42.872Z,86.93
2022-09-26T05:36:21.459Z,86.51
2022-09-26T05:39:01.993Z,86.49
2022-09-26T05:41:33.007Z,86.30
2022-09-26T05:44:05.152Z,86.18
2022-09-26T05:46:37.445Z,85.80
2022-09-26T05:49:11.209Z,85.31
2022-09-26T05:51:41.493Z,84.48
2022-09-26T05:54:10.940Z,84.72
2022-09-26T05:56:39.458Z,84.72
2022-09-26T05:59:27.875Z,84.17
2022-09-26T06:02:31.659Z,83.60
2022-09-26T06:07:08.072Z,82.68
2022-09-26T06:09:40.974Z,82.86
2022-09-26T06:12:26.063Z,82.36
2022-09-26T06:14:55.809Z,82.01
2022-09-26T06:17:25.319Z,81.28
2022-09-26T06:19:55.114Z,81.06
2022-09-26T06:22:25.608Z,80.43
2022-09-26T06:24:54.578Z,80.14
2022-09-26T06:27:24.368Z,79.59
2022-09-26T06:29:58.640Z,79.26
2022-09-26T06:32:31.847Z,79.56
2022-09-26T06:35:18.101Z,79.17
2022-09-26T06:38:01.154Z,79.08
2022-09-26T06:40:57.294Z,78.87
2022-09-26T06:48:24.292Z,76.90
2022-09-26T07:05:47.289Z,76.90
2022-09-26T07:08:57.744Z,77.40
2022-09-26T07:11:56.615Z,77.55
2022-09-26T07:14:26.601Z,77.64
2022-09-26T07:17:04.996Z,77.66
2022-09-26T07:19:55.455Z,77.63
2022-09-26T07:22:46.176Z,77.67
2022-09-26T07:25:15.687Z,77.64
2022-09-26T07:27:52.072Z,77.19
2022-09-26T07:30:24.894Z,77.16
2022-09-26T07:33:07.158Z,77.07
2022-09-26T07:35:45.112Z,77.25
2022-09-26T07:38:15.336Z,77.47
2022-09-26T07:40:44.175Z,76.94
2022-09-26T07:43:20.224Z,76.53
2022-09-26T07:46:13.432Z,76.11
2022-09-26T07:49:07.880Z,75.84
2022-09-26T07:52:02.014Z,76.45
2022-09-26T07:55:02.880Z,76.38
2022-09-26T07:58:08.360Z,76.53
2022-09-26T08:01:03.142Z,76.29
2022-09-26T08:03:59.725Z,76.28
2022-09-26T08:07:00.719Z,76.14
2022-09-26T08:09:38.189Z,76.02
2022-09-26T08:12:38.695Z,75.27
2022-09-26T08:15:45.671Z,74.73
2022-09-26T08:18:36.876Z,74.55
2022-09-26T08:21:15.689Z,74.93
2022-09-26T08:24:02.505Z,74.70
2022-09-26T08:27:02.758Z,75.17
2022-09-26T08:29:42.629Z,74.78
2022-09-26T08:32:11.376Z,74.47
2022-09-26T08:34:41.409Z,74.00
2022-09-26T08:37:36.909Z,73.66
2022-09-26T08:40:33.974Z,73.03
2022-09-26T08:43:41.618Z,73.02
2022-09-26T08:46:43.974Z,72.44
2022-09-26T08:50:04.432Z,72.19
2022-09-26T08:52:57.003Z,71.86
2022-09-26T08:55:41.008Z,72.17
2022-09-26T08:58:25.337Z,71.52
2022-09-26T09:01:06.006Z,71.47
2022-09-26T09:04:02.145Z,71.97
2022-09-26T09:06:38.084Z,72.66
2022-09-26T09:09:08.178Z,73.28
2022-09-26T09:12:45.345Z,74.42
2022-09-26T09:25:01.461Z,78.00
2022-09-26T09:32:52.599Z,79.28
2022-09-26T09:43:19.758Z,80.84
2022-09-26T09:46:39.343Z,80.57
2022-09-26T09:49:30.249Z,81.67
2022-09-26T09:52:28.913Z,81.21
2022-09-26T09:55:41.784Z,82.02
2022-09-26T09:58:37.232Z,82.24
2022-09-26T10:01:39.487Z,83.18
2022-09-26T10:04:58.946Z,83.86
2022-09-26T10:07:32.593Z,83.67
2022-09-26T10:10:52.042Z,83.48
2022-09-26T10:13:45.663Z,83.50
2022-09-26T10:17:13.551Z,84.70
2022-09-26T10:20:12.928Z,84.82
2022-09-26T10:23:36.077Z,84.70
2022-09-26T10:26:14.390Z,85.04
2022-09-26T10:29:00.916Z,84.62
2022-09-26T10:31:42.321Z,84.80
2022-09-26T10:34:31.898Z,84.41
2022-09-26T10:37:35.367Z,84.49
2022-09-26T10:40:53.730Z,85.06
2022-09-26T10:43:31.329Z,85.61
2022-09-26T10:46:32.392Z,85.77
2022-09-26T10:49:31.818Z,85.82
2022-09-26T10:52:08.899Z,86.17
2022-09-26T10:54:43.195Z,86.92
2022-09-26T10:57:25.115Z,87.01
2022-09-26T10:59:57.506Z,88.14
2022-09-26T11:02:28.591Z,89.79
2022-09-26T11:05:22.436Z,90.93
2022-09-26T11:08:19.135Z,92.40
2022-09-26T11:11:14.146Z,92.18
2022-09-26T11:14:02.261Z,91.83
2022-09-26T11:16:49.274Z,91.89
2022-09-26T11:19:42.799Z,92.02
2022-09-26T11:22:34.434Z,91.54
2022-09-26T11:25:12.072Z,91.40
2022-09-26T11:27:46.872Z,91.54
2022-09-26T11:30:24.041Z,91.21
2022-09-26T11:33:00.514Z,91.92
2022-09-26T11:35:58.941Z,92.34
2022-09-26T11:38:47.445Z,92.65
2022-09-26T11:41:48.980Z,92.91
2022-09-26T11:44:32.480Z,92.89
2022-09-26T11:47:53.060Z,93.31
2022-09-26T11:50:48.169Z,94.50
2022-09-26T11:53:40.737Z,94.82
2022-09-26T11:56:44.614Z,94.79
2022-09-26T11:59:44.009Z,94.92
2022-09-26T12:02:41.017Z,93.93
2022-09-26T12:05:38.501Z,92.31
2022-09-26T12:08:36.545Z,91.04
2022-09-26T12:11:37.344Z,90.56
2022-09-26T12:14:24.135Z,89.95
2022-09-26T12:17:06.471Z,89.72
2022-09-26T12:19:42.298Z,89.38
2022-09-26T12:22:29.975Z,88.74
2022-09-26T12:24:58.112Z,87.43
2022-09-26T12:27:50.070Z,87.43
2022-09-26T12:30:32.509Z,86.14
2022-09-26T12:33:06.611Z,87.31
2022-09-26T12:35:37.353Z,86.31
2022-09-26T12:38:32.590Z,85.97
2022-09-26T12:41:23.303Z,85.28
2022-09-26T12:44:28.595Z,85.38
2022-09-26T12:47:24.792Z,84.84
2022-09-26T12:50:05.414Z,85.17
2022-09-26T12:52:44.355Z,84.45
2022-09-26T12:55:34.489Z,84.93
2022-09-26T12:58:25.105Z,83.74
2022-09-26T13:00:56.746Z,83.52
2022-09-26T13:03:36.947Z,83.58
2022-09-26T13:06:29.627Z,83.65
2022-09-26T13:09:16.183Z,84.46
2022-09-26T13:12:01.935Z,85.19
2022-09-26T13:14:46.861Z,85.38
2022-09-26T13:17:17.975Z,85.95
2022-09-26T13:19:51.557Z,86.01
2022-09-26T13:22:46.017Z,85.93
2022-09-26T13:25:29.682Z,86.32
2022-09-26T13:28:10.210Z,86.74
2022-09-26T13:30:44.826Z,87.61
2022-09-26T13:33:22.486Z,88.03
2022-09-26T13:35:53.784Z,87.68
2022-09-26T13:38:38.160Z,88.00
2022-09-26T13:41:18.387Z,88.19
2022-09-26T13:43:47.570Z,88.35
2022-09-26T13:46:31.052Z,88.10
2022-09-26T13:49:02.274Z,88.55
2022-09-26T13:51:49.887Z,88.80
2022-09-26T13:54:44.750Z,88.63
2022-09-26T13:57:47.079Z,88.49
2022-09-26T14:00:24.289Z,88.26
2022-09-26T14:03:23.490Z,88.31
2022-09-26T14:06:06.852Z,88.17
2022-09-26T14:08:55.569Z,88.12
2022-09-26T14:11:30.716Z,87.41
2022-09-26T14:14:21.587Z,87.69
2022-09-26T14:17:01.746Z,87.72
2022-09-26T14:19:46.593Z,87.57
2022-09-26T14:22:24.302Z,87.90
2022-09-26T14:24:53.688Z,87.99
2022-09-26T14:27:25.507Z,87.83
2022-09-26T14:30:13.898Z,88.12
2022-09-26T14:32:46.958Z,88.64
2022-09-26T14:35:21.361Z,88.08
2022-09-26T14:37:52.082Z,88.00
2022-09-26T14:40:30.298Z,88.14
2022-09-26T14:43:18.721Z,87.90
2022-09-26T14:46:15.178Z,88.82
2022-09-26T14:48:44.810Z,89.01
2022-09-26T14:51:15.888Z,89.41
2022-09-26T14:54:16.130Z,89.66
2022-09-26T14:56:51.398Z,89.93
2022-09-26T14:59:19.653Z,90.94
2022-09-26T15:01:48.202Z,91.30
2022-09-26T15:04:26.060Z,91.18
2022-09-26T15:07:03.045Z,91.12
2022-09-26T15:09:45.235Z,91.50
2022-09-26T15:12:18.489Z,91.84
2022-09-26T15:14:55.774Z,92.19
2022-09-26T15:17:31.803Z,92.64
2022-09-26T15:20:03.014Z,92.45
2022-09-26T15:22:31.594Z,92.66
2022-09-26T15:25:21.427Z,92.46
2022-09-26T15:27:55.779Z,93.01
2022-09-26T15:30:32.699Z,93.37
2022-09-26T15:33:06.111Z,93.67
2022-09-26T15:35:34.452Z,92.98
2022-09-26T15:38:09.699Z,92.77
2022-09-26T15:40:38.460Z,92.62
2022-09-26T15:43:08.135Z,92.36
2022-09-26T15:45:49.582Z,92.20
2022-09-26T15:48:34.475Z,92.33
2022-09-26T15:51:25.826Z,92.29
2022-09-26T15:53:58.125Z,92.30
2022-09-26T15:56:47.638Z,93.05
2022-09-26T15:59:21.353Z,93.38
2022-09-26T16:01:50.640Z,93.18
2022-09-26T16:04:27.494Z,92.77
2022-09-26T16:07:14.528Z,93.11
2022-09-26T16:09:47.149Z,92.86
2022-09-26T16:12:15.564Z,92.69
2022-09-26T16:14:54.958Z,92.98
2022-09-26T16:17:40.327Z,93.24
2022-09-26T16:20:17.529Z,93.28
2022-09-26T16:22:46.587Z,92.83
2022-09-26T16:25:20.852Z,92.76
2022-09-26T16:28:00.995Z,93.21
2022-09-26T16:30:32.225Z,93.03
2022-09-26T16:33:03.974Z,93.07
2022-09-26T16:35:35.533Z,93.18
2022-09-26T16:38:25.874Z,93.24
2022-09-26T16:40:57.844Z,93.34
2022-09-26T16:43:29.614Z,94.00
2022-09-26T16:46:18.004Z,93.74
2022-09-26T16:48:49.728Z,93.98
2022-09-26T16:51:19.606Z,94.00
2022-09-26T16:53:53.567Z,94.55
2022-09-26T16:56:24.514Z,94.56
2022-09-26T16:58:59.011Z,94.57
2022-09-26T17:01:45.596Z,94.74
2022-09-26T17:04:19.015Z,95.52
2022-09-26T17:06:47.986Z,95.29
2022-09-26T17:09:30.708Z,94.92
2022-09-26T17:12:13.802Z,95.22
2022-09-26T17:14:43.625Z,95.06
2022-09-26T17:17:21.870Z,95.31
2022-09-26T17:19:56.767Z,95.36
2022-09-26T17:22:28.326Z,95.12
2022-09-26T17:24:58.204Z,95.09
2022-09-26T17:27:33.472Z,95.40
2022-09-26T17:30:05.155Z,95.45
2022-09-26T17:32:44.276Z,95.09
2022-09-26T17:35:19.520Z,95.28
2022-09-26T17:37:47.892Z,95.09
2022-09-26T17:40:24.377Z,95.24
2022-09-26T17:42:57.479Z,95.04
2022-09-26T17:45:40.337Z,94.74
2022-09-26T17:48:15.861Z,94.90
2022-09-26T17:50:44.167Z,94.68
2022-09-26T17:53:20.642Z,94.75
2022-09-26T17:55:49.384Z,94.66
2022-09-26T17:58:18.842Z,94.64
2022-09-26T18:00:50.269Z,94.27
2022-09-26T18:03:25.053Z,94.69
2022-09-26T18:05:54.212Z,95.06
2022-09-26T18:08:29.498Z,95.15
2022-09-26T18:11:02.168Z,95.42
2022-09-26T18:13:33.921Z,95.54
2022-09-26T18:16:03.386Z,95.33
2022-09-26T18:18:33.210Z,95.40
2022-09-26T18:21:05.317Z,95.97
2022-09-26T18:23:42.735Z,96.09
2022-09-26T18:26:29.317Z,95.96
2022-09-26T18:29:02.540Z,95.69
2022-09-26T18:31:33.285Z,95.90
2022-09-26T18:34:03.306Z,96.61
2022-09-26T18:36:33.405Z,96.63
2022-09-26T18:39:01.954Z,96.38
2022-09-26T18:41:30.518Z,96.59
2022-09-26T18:44:00.912Z,96.48
2022-09-26T18:46:30.243Z,95.63
2022-09-26T18:49:00.111Z,96.00
2022-09-26T18:51:28.997Z,96.31
2022-09-26T18:53:57.161Z,96.63
2022-09-26T18:56:43.868Z,96.41
2022-09-26T18:59:13.390Z,95.98
2022-09-26T19:01:43.010Z,95.75
2022-09-26T19:04:17.874Z,95.55
2022-09-26T19:06:49.736Z,95.58
2022-09-26T19:09:22.826Z,95.67
2022-09-26T19:11:51.074Z,95.65
2022-09-26T19:14:28.653Z,95.63
2022-09-26T19:16:57.802Z,95.72
2022-09-26T19:19:28.698Z,96.04
2022-09-26T19:21:59.852Z,96.15
2022-09-26T19:24:28.041Z,95.82
2022-09-26T19:27:03.630Z,96.20
2022-09-26T19:29:43.752Z,96.23
2022-09-26T19:32:24.310Z,96.43
2022-09-26T19:34:57.377Z,96.59
2022-09-26T19:37:25.710Z,96.39
2022-09-26T19:39:54.442Z,96.09
2022-09-26T19:42:22.641Z,95.86
2022-09-26T19:44:51.443Z,95.96
2022-09-26T19:47:23.164Z,96.28
2022-09-26T19:49:52.930Z,96.03
2022-09-26T19:52:22.279Z,96.06
2022-09-26T19:54:50.674Z,96.03
2022-09-26T19:57:22.155Z,95.50
2022-09-26T19:59:51.103Z,95.93
2022-09-26T20:02:24.559Z,96.16
2022-09-26T20:04:52.941Z,96.02
2022-09-26T20:07:21.158Z,95.81
2022-09-26T20:09:49.664Z,95.89
2022-09-26T20:12:17.989Z,95.66
2022-09-26T20:14:46.159Z,95.45
2022-09-26T20:17:21.183Z,95.71
2022-09-26T20:19:50.800Z,95.61
2022-09-26T20:22:22.932Z,95.83
2022-09-26T20:24:55.606Z,95.82
2022-09-26T20:27:28.236Z,96.13
2022-09-26T20:30:16.078Z,96.00
2022-09-26T20:32:44.417Z,95.81
2022-09-26T20:35:15.522Z,95.96
2022-09-26T20:37:44.958Z,96.99
2022-09-26T20:40:21.099Z,97.50
2022-09-26T20:42:57.182Z,98.32
2022-09-26T20:45:39.546Z,98.99
2022-09-26T20:48:22.944Z,99.72
2022-09-26T20:50:51.567Z,100.00
2022-09-26T20:53:21.933Z,100.00
2022-09-26T20:55:51.093Z,99.96
2022-09-26T20:58:19.610Z,100.00
2022-09-26T21:00:48.416Z,100.00
2022-09-26T21:03:20.010Z,100.00
2022-09-26T21:05:48.304Z,99.93
2022-09-26T21:08:22.280Z,99.86
2022-09-26T21:10:50.495Z,99.35
2022-09-26T21:13:18.624Z,98.77
2022-09-26T21:15:46.867Z,98.37
2022-09-26T21:18:28.377Z,98.52
2022-09-26T21:21:07.046Z,98.52
2022-09-26T21:23:54.443Z,98.76
2022-09-26T21:26:25.581Z,98.49
2022-09-26T21:28:55.756Z,97.82
2022-09-26T21:31:33.921Z,98.04
2022-09-26T21:34:03.564Z,97.87
2022-09-26T21:36:38.526Z,97.87
2022-09-26T21:39:06.938Z,97.92
2022-09-26T21:41:36.361Z,98.19
2022-09-26T21:44:09.077Z,97.59
2022-09-26T21:46:37.342Z,97.13
2022-09-26T21:49:05.685Z,96.78
2022-09-26T21:51:35.868Z,96.27
2022-09-26T21:54:09.773Z,96.65
2022-09-26T21:56:50.219Z,96.29
2022-09-26T21:59:21.596Z,95.51
2022-09-26T22:01:50.038Z,95.09
2022-09-26T22:04:20.926Z,94.14
2022-09-26T22:06:49.172Z,92.98
2022-09-26T22:09:17.422Z,92.09
2022-09-26T22:11:45.754Z,91.48
2022-09-26T22:14:14.088Z,91.23
2022-09-26T22:16:42.351Z,91.05
2022-09-26T22:19:10.765Z,90.96
2022-09-26T22:21:39.036Z,91.14
2022-09-26T22:24:07.255Z,90.80
2022-09-26T22:26:35.614Z,91.30
2022-09-26T22:29:04.349Z,91.74
2022-09-26T22:31:32.647Z,91.96
2022-09-26T22:34:00.857Z,91.02
2022-09-26T22:36:29.006Z,89.92
2022-09-26T22:38:57.238Z,89.97
2022-09-26T22:41:25.416Z,89.97
2022-09-26T22:43:53.662Z,90.46
2022-09-26T22:46:21.972Z,90.32
2022-09-26T22:48:50.654Z,90.24
2022-09-26T22:51:18.858Z,91.05
2022-09-26T22:53:47.165Z,91.74
2022-09-26T22:56:15.756Z,92.15
2022-09-26T22:58:47.148Z,92.10
2022-09-26T23:01:22.575Z,92.19
2022-09-26T23:03:54.910Z,91.15
2022-09-26T23:06:23.735Z,90.05
2022-09-26T23:08:52.708Z,89.79
2022-09-26T23:11:22.961Z,90.92
2022-09-26T23:13:52.712Z,91.26
2022-09-26T23:16:23.571Z,92.32
2022-09-26T23:18:52.338Z,92.69
2022-09-26T23:21:26.198Z,92.87
2022-09-26T23:23:56.460Z,93.05
2022-09-26T23:26:31.901Z,92.93
2022-09-26T23:29:00.496Z,93.04
2022-09-26T23:31:29.519Z,93.17
2022-09-26T23:33:58.088Z,93.18
2022-09-26T23:36:26.678Z,92.83
2022-09-26T23:38:57.492Z,92.46
2022-09-26T23:41:25.978Z,92.36
2022-09-26T23:43:54.139Z,92.21
2022-09-26T23:46:22.603Z,92.16
2022-09-26T23:48:50.986Z,92.21
2022-09-26T23:51:19.622Z,92.72
2022-09-26T23:53:48.744Z,93.33
2022-09-26T23:56:17.138Z,93.36
2022-09-26T23:58:45.870Z,93.58
